createdAt,value
2019-04-10T00:00:37.353Z,3.20
2019-04-10T00:03:06.482Z,3.11
2019-04-10T00:05:36.086Z,3.09
2019-04-10T00:08:06.023Z,3.05
2019-04-10T00:10:34.726Z,2.99
2019-04-10T00:13:04.505Z,3.00
2019-04-10T00:15:33.035Z,2.90
2019-04-10T00:18:01.943Z,2.88
2019-04-10T00:20:30.632Z,2.84
2019-04-10T00:22:59.066Z,2.81
2019-04-10T00:25:28.420Z,2.84
2019-04-10T00:27:57.025Z,2.92
2019-04-10T00:30:25.440Z,2.92
2019-04-10T00:32:54.417Z,2.95
2019-04-10T00:35:23.577Z,2.99
2019-04-10T00:37:53.718Z,2.99
2019-04-10T00:40:22.145Z,2.95
2019-04-10T00:42:51.531Z,2.86
2019-04-10T00:45:20.314Z,2.76
2019-04-10T00:47:48.747Z,2.68
2019-04-10T00:50:18.179Z,2.54
2019-04-10T00:52:46.705Z,2.53
2019-04-10T00:55:15.345Z,2.47
2019-04-10T00:57:44.203Z,2.50
2019-04-10T01:00:12.878Z,2.40
2019-04-10T01:02:41.258Z,2.42
2019-04-10T01:05:10.999Z,2.34
2019-04-10T01:07:42.744Z,2.27
2019-04-10T01:10:10.494Z,2.20
2019-04-10T01:12:38.984Z,2.27
2019-04-10T01:15:08.342Z,2.20
2019-04-10T01:17:36.879Z,2.24
2019-04-10T01:20:07.159Z,2.21
2019-04-10T01:22:35.622Z,2.16
2019-04-10T01:25:06.134Z,2.05
2019-04-10T01:27:34.794Z,2.09
2019-04-10T01:30:04.297Z,2.05
2019-04-10T01:32:34.164Z,2.09
2019-04-10T01:35:02.746Z,2.04
2019-04-10T01:37:31.210Z,2.08
2019-04-10T01:39:59.655Z,2.08
2019-04-10T01:42:28.524Z,2.05
2019-04-10T01:44:57.333Z,2.04
2019-04-10T01:47:26.930Z,1.96
2019-04-10T01:49:55.826Z,1.98
2019-04-10T01:52:24.798Z,1.94
2019-04-10T01:54:56.183Z,1.87
2019-04-10T01:57:24.600Z,1.84
2019-04-10T01:59:53.032Z,1.76
2019-04-10T02:02:23.476Z,1.73
2019-04-10T02:04:53.708Z,1.64
2019-04-10T02:07:23.033Z,1.66
2019-04-10T02:09:51.889Z,1.63
2019-04-10T02:12:20.740Z,1.60
2019-04-10T02:14:49.346Z,1.55
2019-04-10T02:17:17.840Z,1.56
2019-04-10T02:19:46.269Z,1.54
2019-04-10T02:22:14.717Z,1.50
2019-04-10T02:24:43.904Z,1.50
2019-04-10T02:27:12.354Z,1.41
2019-04-10T02:29:41.953Z,1.40
2019-04-10T02:32:12.047Z,1.33
2019-04-10T02:34:41.486Z,1.32
2019-04-10T02:37:11.070Z,1.26
2019-04-10T02:39:46.172Z,1.19
2019-04-10T02:42:10.169Z,1.12
2019-04-10T02:44:38.814Z,1.10
2019-04-10T02:47:07.282Z,1.07
2019-04-10T02:49:36.442Z,1.00
2019-04-10T02:52:06.644Z,1.02
2019-04-10T02:54:35.768Z,0.94
2019-04-10T02:57:05.508Z,0.91
2019-04-10T02:59:35.167Z,0.92
2019-04-10T03:02:04.290Z,0.88
2019-04-10T03:04:33.136Z,0.91
2019-04-10T03:07:02.059Z,0.88
2019-04-10T03:09:46.029Z,0.84
2019-04-10T03:12:01.273Z,0.85
2019-04-10T03:14:30.095Z,0.81
2019-04-10T03:16:59.788Z,0.77
2019-04-10T03:19:28.382Z,0.73
2019-04-10T03:21:57.690Z,0.77
2019-04-10T03:24:27.452Z,0.71
2019-04-10T03:26:56.221Z,0.69
2019-04-10T03:29:24.643Z,0.69
2019-04-10T03:31:55.422Z,0.70
2019-04-10T03:34:28.085Z,0.70
2019-04-10T03:36:56.060Z,0.65
2019-04-10T03:39:25.686Z,0.63
2019-04-10T03:41:54.742Z,0.66
2019-04-10T03:44:23.648Z,0.69
2019-04-10T03:46:53.782Z,0.69
2019-04-10T03:49:23.335Z,0.78
2019-04-10T03:51:52.684Z,0.74
2019-04-10T03:54:21.469Z,0.71
2019-04-10T03:56:50.044Z,0.71
2019-04-10T03:59:18.497Z,0.69
2019-04-10T04:01:47.238Z,0.65
2019-04-10T04:04:17.416Z,0.64
2019-04-10T04:06:46.092Z,0.65
2019-04-10T04:09:15.059Z,0.66
2019-04-10T04:11:44.633Z,0.73
2019-04-10T04:14:13.184Z,0.76
2019-04-10T04:16:41.608Z,0.77
2019-04-10T04:19:10.186Z,0.82
2019-04-10T04:21:39.622Z,0.88
2019-04-10T04:24:09.383Z,0.89
2019-04-10T04:26:38.026Z,0.83
2019-04-10T04:29:07.425Z,0.80
2019-04-10T04:31:36.274Z,0.81
2019-04-10T04:34:04.793Z,0.85
2019-04-10T04:36:33.232Z,0.85
2019-04-10T04:39:13.532Z,0.90
2019-04-10T04:41:31.907Z,0.87
2019-04-10T04:44:00.335Z,0.90
2019-04-10T04:46:28.863Z,0.92
2019-04-10T04:48:57.745Z,0.91
2019-04-10T04:51:27.296Z,0.95
2019-04-10T04:53:56.917Z,0.93
2019-04-10T04:56:26.138Z,0.96
2019-04-10T04:58:55.764Z,0.95
2019-04-10T05:01:24.525Z,0.88
2019-04-10T05:03:52.945Z,0.88
2019-04-10T05:06:22.266Z,0.89
2019-04-10T05:08:51.042Z,0.98
2019-04-10T05:11:20.448Z,0.98
2019-04-10T05:13:49.232Z,0.96
2019-04-10T05:16:18.638Z,0.95
2019-04-10T05:18:47.710Z,0.90
2019-04-10T05:21:17.064Z,0.89
2019-04-10T05:23:46.819Z,0.81
2019-04-10T05:26:16.538Z,0.75
2019-04-10T05:28:45.355Z,0.86
2019-04-10T05:31:13.889Z,0.81
2019-04-10T05:33:43.623Z,0.83
2019-04-10T05:36:13.196Z,0.88
2019-04-10T05:38:43.987Z,0.87
2019-04-10T05:41:13.356Z,0.90
2019-04-10T05:43:42.590Z,0.89
2019-04-10T05:46:12.302Z,1.02
2019-04-10T05:48:41.914Z,0.98
2019-04-10T05:51:10.460Z,0.99
2019-04-10T05:53:38.895Z,1.05
2019-04-10T05:56:07.383Z,1.06
2019-04-10T05:58:35.802Z,1.14
2019-04-10T06:01:06.021Z,1.25
2019-04-10T06:03:34.575Z,1.23
2019-04-10T06:06:04.096Z,1.31
2019-04-10T06:08:33.319Z,1.28
2019-04-10T06:11:01.894Z,1.29
2019-04-10T06:13:30.438Z,1.40
2019-04-10T06:15:59.362Z,1.50
2019-04-10T06:18:29.012Z,1.51
2019-04-10T06:20:58.710Z,1.48
2019-04-10T06:23:27.618Z,1.57
2019-04-10T06:25:56.378Z,1.63
2019-04-10T06:28:26.220Z,1.64
2019-04-10T06:30:54.993Z,1.57
2019-04-10T06:33:24.146Z,1.82
2019-04-10T06:35:53.685Z,2.11
2019-04-10T06:38:23.108Z,2.79
2019-04-10T06:40:52.377Z,3.13
2019-04-10T06:43:22.233Z,4.15
2019-04-10T06:45:52.313Z,4.29
2019-04-10T06:48:21.160Z,4.94
2019-04-10T06:50:49.579Z,4.26
2019-04-10T06:53:18.705Z,4.19
2019-04-10T06:55:47.206Z,3.91
2019-04-10T06:58:18.672Z,4.12
2019-04-10T07:00:51.665Z,4.05
2019-04-10T07:03:17.338Z,4.53
2019-04-10T07:06:00.447Z,4.26
2019-04-10T07:08:19.000Z,4.20
2019-04-10T07:10:54.177Z,5.26
2019-04-10T07:13:17.538Z,4.37
2019-04-10T07:15:46.962Z,4.34
2019-04-10T07:18:18.562Z,5.01
2019-04-10T07:20:46.175Z,4.80
2019-04-10T07:23:22.463Z,5.52
2019-04-10T07:25:47.260Z,5.56
2019-04-10T07:28:17.407Z,5.64
2019-04-10T07:30:46.050Z,6.11
2019-04-10T07:33:16.673Z,6.86
2019-04-10T07:35:44.657Z,7.46
2019-04-10T07:38:13.953Z,6.11
2019-04-10T07:40:42.929Z,7.25
2019-04-10T07:43:11.405Z,6.55
2019-04-10T07:45:39.896Z,6.60
2019-04-10T07:48:08.733Z,7.47
2019-04-10T07:50:37.333Z,7.23
2019-04-10T07:53:06.157Z,6.66
2019-04-10T07:55:34.805Z,7.10
2019-04-10T07:58:03.227Z,6.93
2019-04-10T08:00:32.043Z,6.73
2019-04-10T08:03:00.554Z,8.02
2019-04-10T08:05:29.581Z,9.07
2019-04-10T08:07:59.081Z,9.75
2019-04-10T08:10:28.428Z,9.51
2019-04-10T08:12:58.083Z,10.41
2019-04-10T08:15:27.324Z,8.79
2019-04-10T08:17:56.162Z,9.08
2019-04-10T08:20:24.665Z,9.85
2019-04-10T08:22:53.322Z,8.62
2019-04-10T08:25:22.811Z,7.76
2019-04-10T08:27:52.262Z,8.67
2019-04-10T08:30:20.936Z,7.32
2019-04-10T08:32:57.149Z,7.54
2019-04-10T08:35:19.537Z,8.33
2019-04-10T08:37:48.702Z,7.34
2019-04-10T08:40:17.645Z,7.24
2019-04-10T08:42:47.501Z,7.27
2019-04-10T08:45:16.817Z,7.06
2019-04-10T08:47:45.380Z,7.13
2019-04-10T08:50:13.988Z,7.73
2019-04-10T08:52:42.499Z,7.49
2019-04-10T08:55:10.986Z,7.56
2019-04-10T08:57:39.463Z,8.29
2019-04-10T09:00:08.540Z,7.98
2019-04-10T09:02:38.139Z,7.92
2019-04-10T09:05:11.249Z,6.91
2019-04-10T09:07:40.157Z,7.18
2019-04-10T09:10:08.882Z,7.69
2019-04-10T09:12:37.326Z,7.12
2019-04-10T09:15:07.835Z,7.73
2019-04-10T09:17:37.623Z,7.93
2019-04-10T09:20:08.793Z,8.16
2019-04-10T09:23:04.411Z,7.61
2019-04-10T09:25:09.118Z,8.28
2019-04-10T09:27:37.985Z,8.27
2019-04-10T09:30:08.811Z,7.94
2019-04-10T09:32:37.574Z,7.97
2019-04-10T09:35:08.792Z,8.06
2019-04-10T09:37:38.065Z,8.24
2019-04-10T09:40:09.008Z,8.26
2019-04-10T09:42:37.597Z,8.50
2019-04-10T09:45:06.967Z,8.74
2019-04-10T09:47:35.798Z,9.06
2019-04-10T09:50:05.876Z,8.98
2019-04-10T09:52:35.481Z,9.07
2019-04-10T09:55:07.373Z,9.13
2019-04-10T09:57:36.727Z,8.58
2019-04-10T10:00:07.673Z,8.49
2019-04-10T10:02:36.110Z,8.56
2019-04-10T10:05:06.318Z,8.72
2019-04-10T10:07:34.873Z,8.70
2019-04-10T10:10:05.025Z,9.35
2019-04-10T10:12:34.362Z,9.08
2019-04-10T10:15:03.756Z,9.08
2019-04-10T10:17:32.826Z,9.27
2019-04-10T10:20:01.913Z,9.58
2019-04-10T10:22:30.939Z,9.69
2019-04-10T10:25:00.533Z,9.41
2019-04-10T10:27:30.082Z,9.11
2019-04-10T10:30:02.086Z,9.39
2019-04-10T10:32:30.933Z,9.55
2019-04-10T10:34:59.390Z,9.71
2019-04-10T10:37:28.408Z,8.87
2019-04-10T10:39:57.122Z,8.77
2019-04-10T10:42:25.659Z,9.18
2019-04-10T10:44:54.452Z,8.88
2019-04-10T10:47:24.127Z,8.82
2019-04-10T10:49:52.887Z,8.83
2019-04-10T10:52:21.626Z,8.83
2019-04-10T10:54:50.037Z,8.85
2019-04-10T10:57:19.355Z,8.84
2019-04-10T10:59:47.918Z,8.77
2019-04-10T11:02:17.129Z,8.75
2019-04-10T11:04:45.689Z,9.12
2019-04-10T11:07:14.491Z,9.06
2019-04-10T11:09:44.418Z,9.00
2019-04-10T11:12:13.623Z,9.40
2019-04-10T11:14:42.098Z,9.08
2019-04-10T11:17:11.898Z,8.99
2019-04-10T11:19:41.245Z,9.27
2019-04-10T11:22:12.698Z,9.38
2019-04-10T11:24:41.268Z,9.28
2019-04-10T11:27:11.860Z,9.36
2019-04-10T11:29:42.559Z,9.74
2019-04-10T11:32:11.758Z,9.85
2019-04-10T11:34:40.794Z,9.03
2019-04-10T11:37:23.105Z,9.21
2019-04-10T11:42:10.202Z,8.94
2019-04-10T11:44:39.679Z,9.16
2019-04-10T11:47:10.495Z,9.46
2019-04-10T11:49:42.870Z,9.21
2019-04-10T11:52:10.557Z,8.79
2019-04-10T11:54:41.355Z,8.64
2019-04-10T11:57:10.122Z,8.69
2019-04-10T11:59:41.050Z,8.79
2019-04-10T12:02:10.290Z,8.97
2019-04-10T12:04:48.128Z,8.80
2019-04-10T12:07:36.038Z,8.45
2019-04-10T12:12:11.226Z,8.93
2019-04-10T12:14:39.865Z,9.18
2019-04-10T12:17:09.669Z,9.35
2019-04-10T12:19:38.387Z,9.36
2019-04-10T12:22:07.554Z,9.67
2019-04-10T12:24:36.396Z,9.51
2019-04-10T12:27:04.942Z,9.73
2019-04-10T12:29:33.469Z,9.90
2019-04-10T12:32:01.907Z,9.50
2019-04-10T12:34:30.347Z,9.48
2019-04-10T12:36:58.919Z,9.22
2019-04-10T12:39:28.006Z,9.03
2019-04-10T12:41:57.517Z,9.00
2019-04-10T12:44:26.683Z,9.02
2019-04-10T12:46:55.142Z,8.99
2019-04-10T12:49:23.603Z,9.02
2019-04-10T12:51:52.125Z,9.17
2019-04-10T12:54:21.603Z,9.35
2019-04-10T12:56:50.566Z,9.17
2019-04-10T12:59:19.426Z,9.16
2019-04-10T13:01:48.969Z,9.38
2019-04-10T13:04:18.024Z,9.53
2019-04-10T13:06:46.676Z,9.60
2019-04-10T13:09:15.965Z,9.39
2019-04-10T13:11:44.889Z,9.61
2019-04-10T13:14:13.390Z,9.85
2019-04-10T13:16:42.850Z,10.02
2019-04-10T13:19:11.534Z,9.79
2019-04-10T13:21:39.963Z,9.71
2019-04-10T13:24:09.137Z,9.80
2019-04-10T13:26:37.952Z,10.00
2019-04-10T13:29:06.455Z,9.98
2019-04-10T13:31:35.145Z,9.74
2019-04-10T13:34:04.852Z,9.39
2019-04-10T13:36:33.649Z,9.45
2019-04-10T13:39:02.381Z,9.22
2019-04-10T13:41:31.039Z,9.33
2019-04-10T13:44:00.306Z,9.67
2019-04-10T13:46:29.015Z,9.53
2019-04-10T13:48:57.691Z,9.51
2019-04-10T13:51:26.113Z,9.54
2019-04-10T13:53:55.250Z,9.68
2019-04-10T13:56:25.278Z,9.45
2019-04-10T13:58:53.923Z,9.73
2019-04-10T14:01:25.207Z,9.83
2019-04-10T14:03:54.449Z,9.65
2019-04-10T14:06:23.064Z,9.73
2019-04-10T14:09:08.150Z,9.67
2019-04-10T14:11:22.175Z,9.53
2019-04-10T14:13:51.830Z,9.84
2019-04-10T14:16:21.019Z,9.98
2019-04-10T14:18:50.780Z,9.99
2019-04-10T14:21:20.667Z,9.95
2019-04-10T14:23:49.437Z,9.89
2019-04-10T14:26:42.000Z,10.03
2019-04-10T14:29:02.271Z,9.99
2019-04-10T14:31:32.291Z,9.88
2019-04-10T14:34:01.673Z,9.76
2019-04-10T14:36:30.318Z,9.79
2019-04-10T14:39:10.212Z,9.85
2019-04-10T14:41:29.660Z,10.01
2019-04-10T14:43:58.094Z,9.88
2019-04-10T14:46:26.633Z,9.93
2019-04-10T14:48:55.219Z,9.90
2019-04-10T14:51:25.073Z,9.71
2019-04-10T14:53:53.568Z,9.55
2019-04-10T14:56:22.164Z,9.68
2019-04-10T14:58:53.599Z,9.74
2019-04-10T15:01:22.186Z,9.94
2019-04-10T15:03:50.849Z,9.76
2019-04-10T15:06:21.513Z,9.80
2019-04-10T15:08:50.286Z,9.82
2019-04-10T15:11:19.376Z,9.75
2019-04-10T15:13:48.731Z,9.87
2019-04-10T15:16:17.539Z,9.91
2019-04-10T15:18:46.107Z,10.01
2019-04-10T15:21:14.822Z,9.95
2019-04-10T15:23:43.329Z,9.81
2019-04-10T15:26:13.506Z,9.95
2019-04-10T15:28:43.614Z,9.96
2019-04-10T15:31:12.234Z,10.04
2019-04-10T15:33:42.756Z,10.02
2019-04-10T15:36:12.951Z,10.03
2019-04-10T15:38:42.155Z,10.00
2019-04-10T15:41:10.797Z,9.76
2019-04-10T15:43:39.370Z,9.66
2019-04-10T15:46:08.736Z,9.71
2019-04-10T15:48:37.705Z,9.66
2019-04-10T15:51:06.432Z,9.70
2019-04-10T15:53:34.991Z,9.33
2019-04-10T15:56:03.569Z,9.39
2019-04-10T15:58:33.281Z,9.55
2019-04-10T16:01:02.457Z,9.70
2019-04-10T16:03:30.866Z,9.62
2019-04-10T16:05:59.299Z,9.70
2019-04-10T16:08:28.820Z,9.73
2019-04-10T16:10:58.945Z,9.75
2019-04-10T16:13:36.656Z,9.76
2019-04-10T16:16:07.306Z,9.69
2019-04-10T16:18:36.666Z,9.54
2019-04-10T16:21:06.296Z,9.49
2019-04-10T16:23:42.564Z,9.44
2019-04-10T16:26:11.195Z,9.40
2019-04-10T16:28:39.760Z,9.48
2019-04-10T16:31:08.180Z,9.52
2019-04-10T16:33:36.629Z,9.59
2019-04-10T16:36:05.376Z,9.51
2019-04-10T16:38:33.879Z,9.57
2019-04-10T16:41:02.795Z,9.63
2019-04-10T16:43:32.645Z,9.45
2019-04-10T16:46:01.402Z,9.61
2019-04-10T16:48:29.873Z,9.68
2019-04-10T16:51:01.621Z,9.73
2019-04-10T16:53:30.230Z,9.59
2019-04-10T16:55:59.053Z,9.62
2019-04-10T16:58:27.659Z,9.51
2019-04-10T17:00:56.075Z,9.55
2019-04-10T17:03:25.363Z,9.58
2019-04-10T17:05:54.002Z,9.45
2019-04-10T17:08:22.413Z,9.45
2019-04-10T17:10:52.383Z,9.46
2019-04-10T17:13:21.103Z,9.47
2019-04-10T17:15:50.325Z,9.46
2019-04-10T17:18:21.148Z,9.36
2019-04-10T17:20:50.928Z,9.27
2019-04-10T17:23:20.566Z,9.21
2019-04-10T17:25:50.660Z,9.12
2019-04-10T17:28:22.025Z,9.05
2019-04-10T17:30:49.854Z,9.08
2019-04-10T17:33:18.678Z,8.99
2019-04-10T17:35:47.559Z,8.96
2019-04-10T17:38:16.221Z,8.92
2019-04-10T17:40:50.546Z,8.85
2019-04-10T17:43:15.056Z,8.82
2019-04-10T17:45:44.863Z,8.80
2019-04-10T17:48:14.139Z,8.72
2019-04-10T17:50:43.762Z,8.65
2019-04-10T17:53:13.350Z,8.67
2019-04-10T17:55:44.066Z,8.57
2019-04-10T17:58:13.671Z,8.49
2019-04-10T18:00:45.312Z,8.45
2019-04-10T18:03:17.983Z,8.37
2019-04-10T18:05:44.732Z,8.35
2019-04-10T18:08:13.509Z,8.28
2019-04-10T18:10:51.154Z,8.25
2019-04-10T18:13:18.804Z,8.20
2019-04-10T18:15:48.365Z,8.16
2019-04-10T18:18:17.769Z,8.11
2019-04-10T18:20:46.704Z,8.07
2019-04-10T18:23:15.547Z,8.00
2019-04-10T18:25:44.460Z,7.99
2019-04-10T18:28:13.867Z,7.93
2019-04-10T18:30:42.441Z,7.89
2019-04-10T18:33:12.089Z,7.86
2019-04-10T18:35:40.969Z,7.84
2019-04-10T18:38:09.485Z,7.82
2019-04-10T18:40:39.201Z,7.76
2019-04-10T18:43:07.989Z,7.73
2019-04-10T18:45:37.938Z,7.68
2019-04-10T18:48:08.266Z,7.62
2019-04-10T18:50:37.245Z,7.56
2019-04-10T18:53:06.099Z,7.53
2019-04-10T18:55:34.659Z,7.47
2019-04-10T18:58:05.413Z,7.38
2019-04-10T19:00:52.167Z,7.33
2019-04-10T19:03:25.947Z,7.25
2019-04-10T19:06:00.310Z,7.21
2019-04-10T19:08:30.072Z,7.15
2019-04-10T19:11:10.561Z,7.14
2019-04-10T19:13:29.108Z,7.16
2019-04-10T19:15:57.561Z,7.10
2019-04-10T19:18:25.998Z,7.07
2019-04-10T19:20:56.579Z,7.04
2019-04-10T19:23:25.492Z,6.99
2019-04-10T19:25:54.701Z,6.92
2019-04-10T19:28:32.225Z,6.88
2019-04-10T19:31:11.888Z,6.86
2019-04-10T19:33:37.367Z,6.84
2019-04-10T19:36:06.263Z,6.76
2019-04-10T19:38:35.656Z,6.72
2019-04-10T19:41:04.794Z,6.69
2019-04-10T19:43:34.667Z,6.65
2019-04-10T19:46:06.212Z,6.58
2019-04-10T19:48:35.222Z,6.52
2019-04-10T19:51:03.765Z,6.47
2019-04-10T19:53:33.757Z,6.41
2019-04-10T19:56:02.465Z,6.37
2019-04-10T19:58:32.465Z,6.32
2019-04-10T20:01:01.122Z,6.25
2019-04-10T20:03:29.949Z,6.23
2019-04-10T20:06:00.302Z,6.14
2019-04-10T20:08:29.025Z,6.08
2019-04-10T20:10:58.237Z,6.09
2019-04-10T20:13:27.020Z,6.04
2019-04-10T20:15:55.666Z,6.02
2019-04-10T20:18:24.573Z,5.97
2019-04-10T20:20:53.370Z,5.95
2019-04-10T20:23:21.863Z,5.95
2019-04-10T20:25:50.562Z,5.95
2019-04-10T20:28:20.612Z,5.96
2019-04-10T20:30:52.235Z,5.96
2019-04-10T20:33:20.789Z,5.97
2019-04-10T20:35:50.770Z,5.96
2019-04-10T20:38:27.256Z,5.95
2019-04-10T20:44:23.114Z,5.95
2019-04-10T20:46:52.778Z,5.89
2019-04-10T20:49:22.480Z,5.88
2019-04-10T20:51:51.397Z,5.87
2019-04-10T20:54:20.387Z,5.89
2019-04-10T20:56:50.646Z,5.85
2019-04-10T20:59:26.461Z,5.82
2019-04-10T21:01:55.803Z,5.83
2019-04-10T21:04:25.440Z,5.81
2019-04-10T21:06:56.595Z,5.78
2019-04-10T21:09:27.665Z,5.76
2019-04-10T21:12:03.863Z,5.76
2019-04-10T21:14:28.121Z,5.76
2019-04-10T21:17:05.221Z,5.77
2019-04-10T21:19:33.848Z,5.79
2019-04-10T21:22:03.692Z,5.74
2019-04-10T21:24:33.601Z,5.70
2019-04-10T21:27:03.582Z,5.72
2019-04-10T21:29:50.556Z,5.67
2019-04-10T21:32:30.341Z,5.66
2019-04-10T21:35:02.076Z,5.62
2019-04-10T21:37:30.726Z,5.63
2019-04-10T21:40:00.395Z,5.59
2019-04-10T21:42:29.778Z,5.59
2019-04-10T21:44:58.316Z,5.53
2019-04-10T21:47:27.709Z,5.50
2019-04-10T21:49:56.907Z,5.52
2019-04-10T21:52:25.710Z,5.56
2019-04-10T21:54:57.826Z,5.46
2019-04-10T21:57:24.465Z,5.43
2019-04-10T21:59:53.836Z,5.40
2019-04-10T22:02:23.825Z,5.37
2019-04-10T22:04:52.661Z,5.37
2019-04-10T22:07:34.828Z,5.35
2019-04-10T22:10:08.217Z,5.37
2019-04-10T22:12:42.187Z,5.30
2019-04-10T22:15:12.857Z,5.28
2019-04-10T22:17:42.550Z,5.29
2019-04-10T22:20:11.739Z,5.25
2019-04-10T22:22:40.440Z,5.25
2019-04-10T22:25:10.959Z,5.21
2019-04-10T22:27:39.656Z,5.25
2019-04-10T22:30:08.852Z,5.27
2019-04-10T22:32:37.358Z,5.30
2019-04-10T22:35:07.383Z,5.33
2019-04-10T22:37:36.009Z,5.24
2019-04-10T22:40:06.563Z,5.21
2019-04-10T22:42:42.544Z,5.13
2019-04-10T22:45:08.296Z,5.09
2019-04-10T22:47:36.733Z,5.12
2019-04-10T22:50:06.235Z,5.10
2019-04-10T22:52:34.708Z,5.14
2019-04-10T22:55:03.718Z,5.13
2019-04-10T22:57:32.503Z,5.12
2019-04-10T23:00:00.945Z,5.12
2019-04-10T23:02:29.943Z,5.13
2019-04-10T23:04:59.715Z,5.18
2019-04-10T23:07:28.567Z,5.19
2019-04-10T23:09:57.109Z,5.17
2019-04-10T23:12:26.556Z,5.15
2019-04-10T23:14:55.418Z,5.15
2019-04-10T23:17:24.364Z,5.15
2019-04-10T23:19:54.195Z,5.12
2019-04-10T23:22:23.118Z,5.11
2019-04-10T23:24:51.908Z,5.11
2019-04-10T23:27:21.626Z,5.14
2019-04-10T23:29:50.664Z,5.18
2019-04-10T23:32:19.476Z,5.15
2019-04-10T23:34:49.300Z,5.20
2019-04-10T23:37:18.400Z,5.23
2019-04-10T23:39:48.233Z,5.26
2019-04-10T23:42:16.756Z,5.27
2019-04-10T23:44:45.201Z,5.25
2019-04-10T23:47:13.839Z,5.25
2019-04-10T23:49:42.339Z,5.26
2019-04-10T23:52:11.734Z,5.27
2019-04-10T23:54:43.592Z,5.27
2019-04-10T23:57:12.107Z,5.29
2019-04-10T23:59:40.637Z,5.30
